Time;durP1;ratioP1;P1;durP2;ratioP2;P2;SDS_P1;SDS_P2;PMS_P1;PMS_P2;Temp;Humidity;BMP_temperature;BMP_pressure;BME280_temperature;BME280_humidity;BME280_pressure;Samples;Min_cycle;Max_cycle;Signal;HPM_P1;HPM_P2
2021/10/18 00:00:27;;;;;;;6.03;4.38;;;14.40;70.70;;;;;;4898153;29;20033;-82
2021/10/18 00:02:53;;;;;;;5.63;4.00;;;14.40;70.70;;;;;;4897763;29;20032;-81
2021/10/18 00:05:19;;;;;;;5.13;3.85;;;14.40;70.70;;;;;;4867383;29;20493;-82
2021/10/18 00:07:45;;;;;;;6.88;4.70;;;14.40;70.70;;;;;;4882360;29;20499;-82
2021/10/18 00:10:12;;;;;;;5.13;4.30;;;14.50;70.80;;;;;;4881952;29;20379;-81
2021/10/18 00:12:39;;;;;;;6.63;4.85;;;14.40;70.80;;;;;;4881898;29;20024;-82
2021/10/18 00:15:07;;;;;;;6.40;4.30;;;14.40;70.80;;;;;;4913315;29;20064;-82
2021/10/18 00:17:33;;;;;;;5.28;4.47;;;14.40;70.80;;;;;;4898840;29;20040;-82
2021/10/18 00:19:59;;;;;;;5.30;4.13;;;14.40;70.80;;;;;;4866529;29;20056;-82
2021/10/18 00:22:26;;;;;;;5.43;4.18;;;14.40;70.80;;;;;;4882805;29;20048;-81
2021/10/18 00:24:52;;;;;;;5.72;3.83;;;14.40;70.80;;;;;;4882354;29;20116;-82
2021/10/18 00:27:17;;;;;;;6.22;4.63;;;14.30;70.80;;;;;;4882068;29;20472;-82
2021/10/18 00:29:43;;;;;;;5.38;4.05;;;14.30;70.80;;;;;;4866996;29;20037;-82
2021/10/18 00:32:09;;;;;;;6.18;4.50;;;14.30;70.80;;;;;;4867231;29;20127;-82
2021/10/18 00:34:35;;;;;;;5.53;4.25;;;14.30;70.80;;;;;;4866439;29;20512;-82
2021/10/18 00:37:01;;;;;;;5.72;4.22;;;14.30;70.80;;;;;;4882173;29;20132;-82
2021/10/18 00:39:26;;;;;;;5.65;4.28;;;14.30;70.80;;;;;;4866677;29;20434;-81
2021/10/18 00:41:52;;;;;;;6.65;4.88;;;14.30;70.90;;;;;;4897471;29;20402;-81
2021/10/18 00:44:18;;;;;;;5.28;4.15;;;14.30;70.90;;;;;;4881745;29;20032;-82
2021/10/18 00:46:45;;;;;;;5.85;4.57;;;14.30;70.90;;;;;;4866490;29;20115;-81
2021/10/18 00:49:11;;;;;;;6.32;4.40;;;14.30;70.90;;;;;;4866341;29;20037;-81
2021/10/18 00:51:37;;;;;;;5.70;4.22;;;14.30;70.90;;;;;;4882028;29;20043;-82
2021/10/18 00:54:04;;;;;;;6.43;4.85;;;14.30;70.90;;;;;;4885616;29;20413;-82
2021/10/18 00:56:30;;;;;;;5.10;4.07;;;14.30;71.00;;;;;;4902440;29;20032;-82
2021/10/18 00:58:58;;;;;;;5.70;4.50;;;14.20;70.90;;;;;;4869861;29;20033;-82
2021/10/18 01:01:24;;;;;;;6.47;4.45;;;14.20;70.90;;;;;;4885844;29;20041;-82
2021/10/18 01:03:50;;;;;;;5.53;4.18;;;14.20;70.90;;;;;;4885846;29;20035;-82
2021/10/18 01:06:16;;;;;;;5.70;4.43;;;14.20;70.90;;;;;;4901002;29;20033;-82
2021/10/18 01:08:42;;;;;;;5.85;4.47;;;14.20;71.00;;;;;;4901295;29;20356;-82
2021/10/18 01:11:08;;;;;;;5.93;4.43;;;14.20;71.00;;;;;;4901156;29;20043;-82
2021/10/18 01:13:35;;;;;;;5.95;4.32;;;14.20;71.00;;;;;;4885413;29;20119;-83
2021/10/18 01:16:05;;;;;;;5.80;4.40;;;14.20;71.00;;;;;;4869543;29;20063;-80
2021/10/18 01:18:31;;;;;;;6.03;4.70;;;14.20;71.00;;;;;;4901441;29;20036;-82
2021/10/18 01:20:57;;;;;;;6.07;4.22;;;14.20;71.10;;;;;;4884583;29;20053;-82
2021/10/18 01:23:24;;;;;;;5.10;4.07;;;14.10;71.00;;;;;;4869303;29;20037;-82
2021/10/18 01:25:49;;;;;;;5.75;4.18;;;14.20;71.10;;;;;;4884400;29;20037;-82
2021/10/18 01:28:15;;;;;;;6.00;4.60;;;14.10;71.00;;;;;;4869682;29;20044;-82
2021/10/18 01:30:41;;;;;;;6.60;4.40;;;14.10;71.00;;;;;;4900454;29;20064;-82
2021/10/18 01:33:07;;;;;;;5.45;4.47;;;14.10;71.00;;;;;;4869875;29;20094;-81
2021/10/18 01:35:33;;;;;;;5.45;3.90;;;14.10;71.00;;;;;;4884630;29;20028;-82
2021/10/18 01:37:59;;;;;;;5.47;4.22;;;14.10;71.70;;;;;;4884651;29;20470;-82
2021/10/18 01:40:26;;;;;;;5.78;4.20;;;14.10;71.00;;;;;;4884717;29;20145;-82
2021/10/18 01:42:52;;;;;;;5.57;4.13;;;14.10;71.00;;;;;;4869745;29;20462;-82
2021/10/18 01:45:20;;;;;;;5.80;4.55;;;14.10;71.00;;;;;;4885375;29;20036;-81
2021/10/18 01:47:45;;;;;;;5.25;4.35;;;14.00;71.00;;;;;;4869217;29;20066;-82
2021/10/18 01:50:14;;;;;;;7.45;4.18;;;14.00;71.00;;;;;;4869064;29;20047;-83
2021/10/18 01:52:42;;;;;;;5.82;4.30;;;14.00;71.00;;;;;;4901404;29;20142;-82
2021/10/18 01:55:08;;;;;;;6.00;4.30;;;14.00;71.00;;;;;;4884664;29;20032;-82
2021/10/18 01:57:34;;;;;;;5.72;4.20;;;14.00;71.00;;;;;;4884464;29;20108;-82
2021/10/18 02:00:00;;;;;;;5.70;4.50;;;14.00;71.00;;;;;;4900471;29;20129;-82
2021/10/18 02:02:26;;;;;;;5.70;4.45;;;14.00;71.10;;;;;;4884672;29;20033;-81
2021/10/18 02:04:52;;;;;;;5.78;4.43;;;14.00;71.10;;;;;;4899375;29;20041;-82
2021/10/18 02:07:17;;;;;;;5.05;3.85;;;14.00;71.10;;;;;;4868517;29;20033;-82
2021/10/18 02:09:43;;;;;;;5.43;4.18;;;14.00;71.10;;;;;;4868586;29;20068;-82
2021/10/18 02:12:09;;;;;;;6.18;4.72;;;13.90;71.10;;;;;;4868783;29;20036;-82
2021/10/18 02:14:35;;;;;;;5.47;4.07;;;13.90;71.10;;;;;;4868627;29;20029;-82
2021/10/18 02:17:00;;;;;;;5.68;4.25;;;13.90;71.10;;;;;;4884813;29;20044;-82
2021/10/18 02:19:26;;;;;;;5.45;4.03;;;14.00;71.20;;;;;;4885215;29;20052;-82
2021/10/18 02:21:52;;;;;;;6.97;4.82;;;13.90;71.10;;;;;;4884875;29;20044;-82
2021/10/18 02:24:18;;;;;;;6.00;4.55;;;13.90;71.20;;;;;;4885208;29;20176;-82
2021/10/18 02:26:44;;;;;;;5.28;4.38;;;13.90;71.20;;;;;;4885264;29;20466;-82
2021/10/18 02:29:10;;;;;;;5.50;4.43;;;13.90;71.20;;;;;;4901467;29;20032;-82
2021/10/18 02:31:36;;;;;;;6.10;4.40;;;13.90;71.20;;;;;;4869810;29;20123;-82
2021/10/18 02:34:03;;;;;;;6.47;4.60;;;13.90;71.20;;;;;;4902260;29;20060;-82
2021/10/18 02:36:29;;;;;;;6.05;4.43;;;13.80;71.20;;;;;;4901800;29;20025;-82
2021/10/18 02:38:56;;;;;;;5.68;4.22;;;13.80;71.20;;;;;;4884597;29;20136;-82
2021/10/18 02:41:22;;;;;;;5.53;4.32;;;13.80;71.20;;;;;;4883876;29;20037;-82
2021/10/18 02:43:48;;;;;;;5.88;4.50;;;13.80;71.20;;;;;;4885109;29;20036;-81
2021/10/18 02:46:14;;;;;;;5.95;4.25;;;13.80;71.20;;;;;;4868411;29;20112;-81
2021/10/18 02:48:40;;;;;;;6.25;4.40;;;13.80;71.20;;;;;;4899196;29;20057;-82
2021/10/18 02:51:05;;;;;;;6.40;4.72;;;13.80;71.20;;;;;;4883387;29;20096;-82
2021/10/18 02:53:31;;;;;;;6.07;4.68;;;13.80;71.20;;;;;;4867886;29;20064;-82
2021/10/18 02:55:57;;;;;;;7.28;4.78;;;13.80;71.20;;;;;;4883520;29;20067;-82
2021/10/18 02:58:23;;;;;;;6.18;4.40;;;13.80;71.20;;;;;;4867641;29;20032;-82
2021/10/18 03:00:48;;;;;;;6.32;4.72;;;13.80;71.20;;;;;;4883578;29;20043;-82
2021/10/18 03:03:14;;;;;;;6.85;4.88;;;13.70;71.20;;;;;;4867660;29;20039;-81
2021/10/18 03:05:40;;;;;;;6.20;4.97;;;13.80;71.30;;;;;;4883307;29;20039;-81
2021/10/18 03:08:06;;;;;;;6.38;4.72;;;13.80;71.30;;;;;;4883229;29;20056;-82
2021/10/18 03:10:32;;;;;;;8.15;5.50;;;13.70;71.20;;;;;;4883464;29;20048;-81
2021/10/18 03:12:57;;;;;;;6.68;4.90;;;13.70;71.90;;;;;;4867681;29;20039;-82
2021/10/18 03:15:23;;;;;;;6.18;4.70;;;13.70;71.20;;;;;;4882135;29;20029;-81
2021/10/18 03:17:51;;;;;;;5.88;4.43;;;13.70;71.20;;;;;;4882940;29;20456;-81
2021/10/18 03:20:17;;;;;;;6.30;4.85;;;13.70;71.30;;;;;;4899747;29;20139;-81
2021/10/18 03:22:43;;;;;;;5.90;4.85;;;13.70;71.30;;;;;;4898813;29;20067;-82
2021/10/18 03:25:09;;;;;;;6.75;4.82;;;13.70;71.30;;;;;;4883086;29;20028;-81
2021/10/18 03:27:36;;;;;;;7.40;5.18;;;13.70;71.30;;;;;;4883504;29;20363;-81
2021/10/18 03:30:03;;;;;;;6.45;4.82;;;13.70;71.30;;;;;;4866955;29;20088;-81
2021/10/18 03:32:30;;;;;;;6.90;5.40;;;13.70;71.30;;;;;;4882727;29;20040;-81
2021/10/18 03:34:55;;;;;;;6.80;5.40;;;13.60;71.20;;;;;;4867304;29;20124;-82
2021/10/18 03:37:22;;;;;;;5.65;4.60;;;13.60;71.20;;;;;;4898095;29;20037;-82
2021/10/18 03:39:48;;;;;;;6.38;4.85;;;13.60;71.20;;;;;;4882931;29;20064;-81
2021/10/18 03:42:13;;;;;;;6.32;4.82;;;13.60;71.30;;;;;;4882634;29;20075;-81
2021/10/18 03:44:39;;;;;;;6.60;5.30;;;13.60;71.30;;;;;;4882649;29;20064;-82
2021/10/18 03:47:05;;;;;;;6.47;5.18;;;13.60;71.30;;;;;;4883209;29;20037;-81
2021/10/18 03:49:31;;;;;;;6.80;5.15;;;13.50;71.30;;;;;;4882834;29;20119;-81
2021/10/18 03:51:57;;;;;;;6.10;4.80;;;13.60;71.30;;;;;;4867235;29;20072;-81
2021/10/18 03:54:23;;;;;;;7.00;5.30;;;13.50;71.30;;;;;;4882578;29;20430;-81
2021/10/18 03:56:49;;;;;;;7.45;5.53;;;13.50;71.30;;;;;;4882519;29;20033;-81
2021/10/18 03:59:14;;;;;;;6.50;5.10;;;13.50;71.30;;;;;;4882993;29;20056;-81
2021/10/18 04:01:41;;;;;;;6.75;5.03;;;13.50;71.30;;;;;;4882711;29;20044;-81
2021/10/18 04:04:06;;;;;;;6.75;5.15;;;13.50;71.30;;;;;;4883076;29;20033;-81
2021/10/18 04:06:32;;;;;;;6.32;5.25;;;13.50;71.30;;;;;;4882151;29;20033;-81
2021/10/18 04:08:58;;;;;;;7.20;5.50;;;13.50;71.30;;;;;;4866779;29;20112;-82
2021/10/18 04:11:24;;;;;;;6.72;5.03;;;13.50;71.30;;;;;;4899370;29;20089;-81
2021/10/18 04:13:50;;;;;;;7.70;5.68;;;13.50;71.30;;;;;;4866906;29;20036;-82
2021/10/18 04:16:16;;;;;;;6.68;5.22;;;13.40;71.30;;;;;;4866699;29;20047;-82
2021/10/18 04:18:42;;;;;;;7.88;6.07;;;13.40;71.30;;;;;;4882016;29;20103;-82
2021/10/18 04:21:08;;;;;;;6.57;5.45;;;13.40;71.30;;;;;;4866073;29;20056;-82
2021/10/18 04:23:34;;;;;;;7.10;5.38;;;13.40;71.30;;;;;;4866736;29;20101;-82
2021/10/18 04:26:00;;;;;;;8.20;5.50;;;13.40;71.30;;;;;;4881711;29;20128;-82
2021/10/18 04:28:26;;;;;;;6.88;5.68;;;13.40;71.30;;;;;;4901713;29;20032;-80
2021/10/18 04:30:53;;;;;;;7.38;5.63;;;13.30;71.20;;;;;;4870106;29;20146;-81
2021/10/18 04:33:19;;;;;;;6.68;5.00;;;13.40;71.30;;;;;;4885870;29;20067;-81
2021/10/18 04:35:46;;;;;;;6.25;5.22;;;13.30;71.20;;;;;;4902135;29;20294;-81
2021/10/18 04:38:12;;;;;;;6.55;5.25;;;13.30;71.20;;;;;;4869820;29;20083;-80
2021/10/18 04:40:37;;;;;;;6.35;5.13;;;13.30;71.20;;;;;;4885173;29;20037;-80
2021/10/18 04:43:03;;;;;;;6.85;5.28;;;13.30;71.30;;;;;;4869810;29;20041;-80
2021/10/18 04:45:30;;;;;;;7.05;5.72;;;13.30;71.30;;;;;;4885978;29;20032;-80
2021/10/18 04:47:56;;;;;;;6.85;5.10;;;13.20;71.20;;;;;;4870176;29;20021;-80
2021/10/18 04:50:23;;;;;;;6.82;5.60;;;13.20;71.20;;;;;;4900496;29;20051;-80
2021/10/18 04:52:50;;;;;;;6.55;5.15;;;13.20;71.20;;;;;;4902154;29;20439;-80
2021/10/18 04:55:16;;;;;;;7.13;5.57;;;13.20;71.20;;;;;;4902163;29;20052;-81
2021/10/18 04:57:56;;;;;;;7.20;5.80;;;13.20;71.20;;;;;;4869581;29;20032;-85
2021/10/18 05:00:24;;;;;;;6.88;5.30;;;13.20;71.30;;;;;;4885573;29;20033;-81
2021/10/18 05:02:50;;;;;;;7.15;5.55;;;13.20;71.20;;;;;;4869646;29;20129;-79
2021/10/18 05:05:17;;;;;;;6.88;5.30;;;13.10;71.10;;;;;;4869432;29;20044;-82
2021/10/18 05:07:43;;;;;;;6.75;5.30;;;13.10;71.20;;;;;;4885155;29;20029;-80
2021/10/18 05:10:11;;;;;;;6.22;4.97;;;13.10;71.20;;;;;;4870437;29;20517;-86
2021/10/18 05:12:38;;;;;;;6.57;5.35;;;13.10;71.20;;;;;;4902404;29;20440;-80
2021/10/18 05:15:06;;;;;;;6.47;5.45;;;13.10;71.20;;;;;;4869380;29;20053;-81
2021/10/18 05:17:32;;;;;;;7.50;5.70;;;13.10;71.20;;;;;;4885368;29;20434;-81
2021/10/18 05:19:58;;;;;;;6.68;5.70;;;13.00;71.20;;;;;;4884925;29;20056;-81
2021/10/18 05:22:23;;;;;;;6.78;5.55;;;13.10;71.20;;;;;;4884700;29;20041;-80
2021/10/18 05:24:49;;;;;;;6.75;5.10;;;13.00;71.20;;;;;;4900426;29;20039;-80
2021/10/18 05:27:15;;;;;;;7.85;5.68;;;13.00;71.20;;;;;;4869280;29;20044;-80
2021/10/18 05:29:41;;;;;;;7.38;5.80;;;13.00;71.20;;;;;;4900445;29;20024;-80
2021/10/18 05:32:07;;;;;;;6.50;5.32;;;13.00;71.20;;;;;;4869206;29;20463;-81
2021/10/18 05:34:32;;;;;;;6.53;5.25;;;12.90;71.20;;;;;;4869378;29;20107;-81
2021/10/18 05:36:58;;;;;;;7.45;5.47;;;12.90;71.20;;;;;;4884776;29;20462;-80
2021/10/18 05:39:24;;;;;;;6.88;5.28;;;12.90;71.20;;;;;;4883632;29;20462;-80
2021/10/18 05:41:50;;;;;;;6.75;5.10;;;12.90;71.20;;;;;;4884416;29;20033;-81
2021/10/18 05:44:15;;;;;;;6.20;5.00;;;12.90;71.90;;;;;;4884775;29;20563;-80
2021/10/18 05:46:41;;;;;;;6.28;5.20;;;12.90;71.90;;;;;;4869688;29;20120;-80
2021/10/18 05:49:07;;;;;;;6.95;5.60;;;12.80;71.20;;;;;;4884464;29;20037;-80
2021/10/18 05:51:32;;;;;;;6.60;5.30;;;12.80;71.20;;;;;;4868881;29;20048;-80
2021/10/18 05:53:59;;;;;;;5.90;4.80;;;12.90;71.30;;;;;;4884931;29;20040;-82
2021/10/18 05:56:28;;;;;;;6.53;5.30;;;12.80;71.20;;;;;;4869812;29;20041;-83
2021/10/18 05:58:57;;;;;;;5.95;4.72;;;12.80;71.30;;;;;;4869127;29;20056;-82
2021/10/18 06:01:23;;;;;;;7.20;5.15;;;12.80;71.30;;;;;;4900961;29;20486;-81
2021/10/18 06:03:48;;;;;;;6.60;5.63;;;12.70;71.20;;;;;;4884874;29;20058;-82
2021/10/18 06:06:15;;;;;;;6.47;4.90;;;12.80;71.30;;;;;;4869117;29;20032;-81
2021/10/18 06:08:41;;;;;;;6.57;5.15;;;12.70;71.30;;;;;;4884349;29;20044;-81
2021/10/18 06:11:07;;;;;;;7.00;4.93;;;12.70;71.30;;;;;;4868954;29;20044;-80
2021/10/18 06:13:33;;;;;;;6.72;5.55;;;12.70;71.30;;;;;;4868674;29;20064;-81
2021/10/18 06:15:59;;;;;;;7.03;5.90;;;12.70;71.30;;;;;;4884269;29;20024;-82
2021/10/18 06:18:25;;;;;;;6.78;5.35;;;12.70;71.40;;;;;;4900528;29;20155;-83
2021/10/18 06:20:53;;;;;;;6.53;5.32;;;12.60;71.30;;;;;;4884118;29;20092;-82
2021/10/18 06:23:20;;;;;;;6.70;5.22;;;12.70;71.40;;;;;;4868636;29;20478;-83
2021/10/18 06:25:47;;;;;;;8.13;5.28;;;12.70;71.40;;;;;;4900432;29;20064;-82
2021/10/18 06:28:14;;;;;;;7.40;5.78;;;12.60;71.40;;;;;;4868443;29;20029;-82
2021/10/18 06:30:40;;;;;;;7.38;5.50;;;12.70;71.50;;;;;;4900568;29;20538;-82
2021/10/18 06:33:06;;;;;;;6.65;5.45;;;12.60;71.40;;;;;;4883941;29;20040;-83
2021/10/18 06:35:33;;;;;;;7.75;5.38;;;12.60;71.50;;;;;;4915250;29;20056;-82
2021/10/18 06:37:59;;;;;;;7.10;5.53;;;12.60;71.50;;;;;;4883565;29;20035;-81
2021/10/18 06:40:26;;;;;;;6.57;5.35;;;12.60;71.50;;;;;;4868523;29;20100;-82
2021/10/18 06:42:52;;;;;;;7.20;5.72;;;12.60;71.50;;;;;;4901191;29;20040;-83
2021/10/18 06:45:18;;;;;;;6.63;5.32;;;12.60;71.60;;;;;;4868729;29;20029;-82
2021/10/18 06:47:45;;;;;;;7.28;5.53;;;12.60;71.60;;;;;;4883365;29;20033;-81
2021/10/18 06:50:11;;;;;;;7.55;6.18;;;12.60;71.70;;;;;;4899791;29;20035;-81
2021/10/18 06:52:40;;;;;;;7.07;5.55;;;12.60;71.70;;;;;;4899962;29;20032;-80
2021/10/18 06:55:08;;;;;;;6.68;5.63;;;12.60;71.70;;;;;;4867957;29;20025;-81
2021/10/18 06:57:35;;;;;;;7.97;5.82;;;12.60;71.70;;;;;;4868099;29;20041;-81
2021/10/18 07:00:01;;;;;;;6.82;5.60;;;12.60;71.70;;;;;;4899465;29;20025;-82
2021/10/18 07:02:27;;;;;;;6.60;5.35;;;12.50;71.70;;;;;;4882916;29;20035;-81
2021/10/18 07:04:53;;;;;;;7.07;5.82;;;12.50;71.70;;;;;;4883152;29;20077;-81
2021/10/18 07:07:21;;;;;;;7.45;5.78;;;12.50;71.80;;;;;;4899674;29;20035;-81
2021/10/18 07:09:47;;;;;;;7.63;5.50;;;12.50;71.80;;;;;;4867532;29;20489;-86
2021/10/18 07:12:13;;;;;;;7.45;6.28;;;12.50;71.80;;;;;;4868397;29;20032;-83
2021/10/18 07:14:39;;;;;;;7.03;5.68;;;12.50;71.80;;;;;;4899360;29;20485;-81
2021/10/18 07:17:04;;;;;;;8.02;6.03;;;12.50;72.50;;;;;;4899858;29;20060;-80
2021/10/18 07:19:30;;;;;;;8.43;6.50;;;12.50;71.90;;;;;;4897985;29;20078;-81
2021/10/18 07:21:56;;;;;;;7.65;6.00;;;12.50;71.90;;;;;;4883589;29;20044;-80
2021/10/18 07:24:22;;;;;;;8.55;6.20;;;12.50;71.90;;;;;;4882537;29;20056;-80
2021/10/18 07:26:49;;;;;;;7.07;5.68;;;12.50;71.90;;;;;;4883251;29;20033;-80
2021/10/18 07:29:17;;;;;;;8.00;6.03;;;12.50;71.90;;;;;;4867985;29;20486;-80
2021/10/18 07:31:42;;;;;;;7.43;5.80;;;12.50;72.00;;;;;;4897902;29;20038;-80
2021/10/18 07:34:14;;;;;;;7.35;5.47;;;12.50;72.00;;;;;;4898109;29;20051;-80
2021/10/18 07:36:48;;;;;;;7.10;5.68;;;12.50;72.10;;;;;;4898923;29;20117;-80
2021/10/18 07:39:18;;;;;;;8.68;5.70;;;12.50;72.10;;;;;;4899387;29;20064;-80
2021/10/18 07:41:44;;;;;;;7.43;5.63;;;12.50;72.10;;;;;;4882598;29;20067;-81
2021/10/18 07:44:10;;;;;;;7.68;6.30;;;12.50;72.10;;;;;;4867038;29;20028;-80
2021/10/18 07:46:36;;;;;;;7.72;5.85;;;12.50;72.10;;;;;;4882347;29;20378;-80
2021/10/18 07:49:02;;;;;;;7.00;5.78;;;12.50;72.10;;;;;;4867088;29;20028;-80
2021/10/18 07:51:28;;;;;;;9.02;6.43;;;12.50;72.10;;;;;;4881946;29;20041;-80
2021/10/18 07:53:54;;;;;;;7.03;5.63;;;12.50;72.10;;;;;;4866714;29;20124;-80
2021/10/18 07:56:19;;;;;;;7.72;5.88;;;12.50;72.20;;;;;;4881838;29;20499;-80
2021/10/18 07:58:45;;;;;;;7.75;6.28;;;12.50;72.20;;;;;;4867316;29;20081;-80
2021/10/18 08:01:11;;;;;;;8.15;5.90;;;12.50;72.20;;;;;;4898475;29;20037;-80
2021/10/18 08:03:36;;;;;;;7.70;5.72;;;12.50;72.20;;;;;;4897369;29;20052;-80
2021/10/18 08:06:02;;;;;;;7.38;5.78;;;12.60;72.20;;;;;;4881890;29;20040;-79
2021/10/18 08:08:30;;;;;;;7.55;5.60;;;12.60;72.30;;;;;;4897854;29;20409;-81
2021/10/18 08:10:57;;;;;;;8.45;6.70;;;12.60;72.30;;;;;;4898363;29;20068;-80
2021/10/18 08:13:23;;;;;;;8.02;6.00;;;12.60;72.30;;;;;;4897443;29;20029;-80
2021/10/18 08:15:48;;;;;;;7.78;5.78;;;12.60;72.30;;;;;;4866448;29;20429;-80
2021/10/18 08:18:14;;;;;;;7.32;5.68;;;12.60;72.30;;;;;;4881789;29;20145;-80
2021/10/18 08:20:42;;;;;;;7.10;5.72;;;12.60;72.30;;;;;;4881527;29;20616;-80
2021/10/18 08:23:08;;;;;;;9.15;6.60;;;12.60;72.40;;;;;;4866216;29;20081;-80
2021/10/18 08:25:34;;;;;;;7.80;6.00;;;12.60;72.40;;;;;;4897395;29;20140;-80
2021/10/18 08:28:00;;;;;;;8.13;6.10;;;12.60;72.40;;;;;;4881892;29;20111;-79
2021/10/18 08:30:26;;;;;;;7.00;5.57;;;12.60;72.40;;;;;;4912752;29;20071;-79
2021/10/18 08:32:52;;;;;;;7.88;5.82;;;12.70;72.50;;;;;;4866329;29;20156;-79
2021/10/18 08:35:19;;;;;;;7.45;5.68;;;12.70;72.50;;;;;;4898407;29;20474;-81
2021/10/18 08:40:34;;;;;;;8.30;5.65;;;12.70;72.50;;;;;;4881800;29;20045;-79
2021/10/18 08:43:19;;;;;;;6.65;5.28;;;12.70;72.50;;;;;;4882251;29;20415;-79
2021/10/18 08:45:46;;;;;;;6.90;5.22;;;12.70;72.50;;;;;;4884672;29;20064;-80
2021/10/18 08:48:11;;;;;;;6.20;4.80;;;12.80;72.60;;;;;;4896797;29;20032;-79
2021/10/18 08:50:38;;;;;;;7.18;5.68;;;12.80;72.60;;;;;;4881398;29;20410;-80
2021/10/18 08:53:04;;;;;;;6.88;5.32;;;12.80;72.60;;;;;;4866047;29;20035;-80
2021/10/18 08:55:33;;;;;;;7.45;5.22;;;12.80;72.70;;;;;;4881597;29;20066;-80
2021/10/18 08:57:59;;;;;;;7.28;5.88;;;12.80;72.70;;;;;;4868530;29;20079;-80
2021/10/18 09:00:38;;;;;;;7.55;6.05;;;12.80;72.70;;;;;;4881384;29;20497;-80
2021/10/18 09:03:34;;;;;;;6.85;5.38;;;12.90;72.80;;;;;;4898526;29;20472;-80
2021/10/18 09:06:23;;;;;;;6.78;5.15;;;12.90;72.90;;;;;;4865908;29;20478;-80
2021/10/18 09:08:55;;;;;;;7.18;5.68;;;12.90;72.80;;;;;;4898687;29;20029;-80
2021/10/18 09:11:28;;;;;;;6.97;5.40;;;13.00;72.80;;;;;;4881533;29;20040;-80
2021/10/18 09:13:58;;;;;;;6.53;4.95;;;13.00;72.80;;;;;;4883354;29;20043;-80
2021/10/18 09:16:24;;;;;;;6.18;4.75;;;13.00;72.80;;;;;;4885233;29;20031;-80
2021/10/18 09:19:06;;;;;;;7.07;5.40;;;13.10;72.80;;;;;;4885185;29;20405;-80
2021/10/18 09:21:35;;;;;;;6.80;5.68;;;13.10;72.80;;;;;;4884447;29;20060;-81
2021/10/18 09:24:02;;;;;;;6.45;5.07;;;13.10;72.70;;;;;;4884819;29;20091;-80
2021/10/18 09:26:33;;;;;;;6.65;4.78;;;13.20;72.70;;;;;;4884579;29;20466;-80
2021/10/18 09:29:06;;;;;;;6.60;5.03;;;13.20;72.60;;;;;;4884716;29;20033;-80
2021/10/18 09:31:32;;;;;;;6.93;5.10;;;13.20;72.60;;;;;;4901619;29;20036;-80
2021/10/18 09:34:18;;;;;;;6.68;4.97;;;13.20;72.50;;;;;;4884702;29;20040;-81
2021/10/18 09:36:45;;;;;;;6.53;5.03;;;13.30;72.60;;;;;;4900391;29;20036;-82
2021/10/18 09:39:24;;;;;;;6.82;4.90;;;13.30;72.40;;;;;;4884668;29;20032;-80
2021/10/18 09:42:05;;;;;;;6.15;4.80;;;13.40;72.50;;;;;;4885307;29;20047;-81
2021/10/18 10:53:20;;;;;;;5.30;4.00;;;14.40;72.10;;;;;;4870062;29;20037;-80
2021/10/18 10:55:46;;;;;;;6.28;4.47;;;14.40;72.10;;;;;;4883356;29;20059;-79
2021/10/18 10:58:33;;;;;;;6.03;4.28;;;14.40;72.10;;;;;;4899643;29;20516;-79
2021/10/18 11:00:59;;;;;;;5.60;4.20;;;14.50;72.30;;;;;;4883301;29;20048;-80
2021/10/18 11:03:35;;;;;;;5.88;4.60;;;14.50;72.10;;;;;;4883441;29;20056;-80
2021/10/18 11:06:10;;;;;;;9.68;4.65;;;14.60;72.10;;;;;;4899998;29;20466;-81
2021/10/18 11:08:40;;;;;;;6.45;4.68;;;14.60;72.10;;;;;;4867161;29;20041;-79
2021/10/18 11:11:14;;;;;;;6.20;4.85;;;14.70;72.10;;;;;;4882826;29;20067;-80
2021/10/18 11:13:57;;;;;;;7.47;4.57;;;14.70;72.10;;;;;;4883560;29;20541;-80
2021/10/18 11:16:24;;;;;;;6.90;5.07;;;14.70;72.00;;;;;;4899778;29;20061;-79
2021/10/18 11:18:54;;;;;;;7.45;4.75;;;14.70;71.90;;;;;;4899673;29;20032;-80
2021/10/18 11:21:27;;;;;;;6.38;5.20;;;14.80;72.00;;;;;;4882276;29;20053;-80
2021/10/18 11:24:06;;;;;;;6.28;4.60;;;14.80;71.90;;;;;;4883155;29;20033;-81
2021/10/18 11:26:38;;;;;;;6.57;4.35;;;14.90;72.00;;;;;;4867408;29;20028;-81
2021/10/18 11:29:07;;;;;;;6.43;4.65;;;14.90;71.90;;;;;;4882847;29;20059;-80
2021/10/18 11:31:44;;;;;;;6.70;5.15;;;14.90;71.90;;;;;;4882811;29;20062;-80
2021/10/18 11:34:19;;;;;;;7.30;5.30;;;15.00;72.00;;;;;;4866838;29;20032;-80
2021/10/18 11:36:47;;;;;;;6.68;5.22;;;15.00;71.90;;;;;;4897190;29;20040;-81
2021/10/18 11:39:21;;;;;;;7.55;5.70;;;15.00;71.90;;;;;;4882154;29;20146;-80
2021/10/18 11:42:10;;;;;;;6.30;5.07;;;15.00;71.90;;;;;;4882331;29;20039;-80
2021/10/18 11:44:47;;;;;;;6.10;4.70;;;15.10;72.00;;;;;;4882189;29;20029;-80
2021/10/18 11:47:34;;;;;;;7.03;4.82;;;15.10;71.80;;;;;;4882199;29;20033;-80
2021/10/18 11:50:19;;;;;;;6.22;4.78;;;15.10;72.00;;;;;;4882954;29;20374;-80
2021/10/18 11:52:56;;;;;;;6.80;4.85;;;15.20;71.90;;;;;;4882722;29;20041;-81
2021/10/18 11:55:35;;;;;;;6.63;5.00;;;15.20;71.90;;;;;;4882628;29;20470;-81
2021/10/18 11:58:04;;;;;;;6.38;5.38;;;15.20;71.80;;;;;;4882361;29;20036;-80
2021/10/18 12:00:41;;;;;;;7.00;5.65;;;15.20;71.70;;;;;;4882356;29;20136;-80
2021/10/18 12:03:19;;;;;;;7.18;5.55;;;15.30;71.90;;;;;;4882584;29;20040;-81
2021/10/18 12:05:47;;;;;;;6.47;5.18;;;15.30;71.80;;;;;;4913964;29;20088;-82
2021/10/18 12:08:15;;;;;;;7.03;5.30;;;15.40;71.70;;;;;;4867269;29;20027;-81
2021/10/18 12:10:42;;;;;;;7.97;5.93;;;15.40;71.70;;;;;;4899204;29;20092;-85
2021/10/18 12:13:26;;;;;;;7.05;5.50;;;15.40;71.70;;;;;;4866917;29;20029;-82
2021/10/18 12:15:52;;;;;;;7.28;5.72;;;15.50;71.80;;;;;;4914470;29;20040;-83
2021/10/18 12:18:21;;;;;;;7.95;5.63;;;15.50;71.70;;;;;;4882078;29;20028;-83
2021/10/18 12:20:52;;;;;;;7.10;5.63;;;15.50;71.70;;;;;;4879293;29;20057;-84
2021/10/18 12:23:24;;;;;;;6.50;5.13;;;15.50;71.60;;;;;;4910648;29;20036;-84
2021/10/18 12:25:59;;;;;;;7.65;5.75;;;15.60;71.70;;;;;;4880171;29;20493;-82
2021/10/18 12:28:39;;;;;;;6.57;5.20;;;15.60;71.70;;;;;;4911742;29;20146;-83
2021/10/18 12:31:06;;;;;;;6.60;5.28;;;15.60;71.70;;;;;;4911142;29;20143;-84
2021/10/18 12:33:38;;;;;;;7.30;5.72;;;15.70;71.90;;;;;;4879657;29;20036;-83
2021/10/18 12:36:06;;;;;;;6.90;5.35;;;15.70;71.70;;;;;;4895135;29;20378;-83
2021/10/18 12:38:36;;;;;;;6.78;5.43;;;15.70;71.60;;;;;;4894942;29;20026;-83
2021/10/18 12:41:15;;;;;;;7.45;5.95;;;15.70;71.60;;;;;;4880367;29;20048;-83
2021/10/18 12:43:41;;;;;;;7.43;6.07;;;15.80;71.60;;;;;;4896591;29;20037;-83
2021/10/18 12:46:28;;;;;;;7.03;5.43;;;15.80;71.60;;;;;;4863784;29;20029;-83
2021/10/18 12:49:08;;;;;;;7.18;5.65;;;15.80;71.70;;;;;;4881374;29;20040;-81
2021/10/18 12:51:46;;;;;;;6.88;5.10;;;15.90;71.60;;;;;;4882991;29;20048;-80
2021/10/18 12:54:25;;;;;;;6.55;5.13;;;15.90;71.50;;;;;;4882632;29;20061;-81
2021/10/18 12:57:12;;;;;;;6.63;5.07;;;15.90;71.50;;;;;;4882736;29;20060;-81
2021/10/18 13:00:04;;;;;;;6.35;5.20;;;16.00;71.60;;;;;;4882541;29;20044;-83
2021/10/18 13:02:31;;;;;;;7.05;5.20;;;16.00;71.50;;;;;;4883487;29;20033;-85
2021/10/18 13:05:18;;;;;;;6.97;5.22;;;16.00;71.30;;;;;;4882572;29;20398;-89
2021/10/18 13:07:57;;;;;;;6.88;5.30;;;16.00;71.50;;;;;;4897933;29;20093;-81
2021/10/18 13:10:28;;;;;;;6.90;5.13;;;16.10;71.40;;;;;;4882334;29;20041;-82
2021/10/18 13:12:57;;;;;;;6.72;5.15;;;16.10;71.40;;;;;;4883390;29;20059;-82
2021/10/18 13:15:23;;;;;;;7.50;5.90;;;16.10;71.30;;;;;;4882242;29;20033;-82
2021/10/18 13:17:49;;;;;;;6.88;5.25;;;16.10;71.30;;;;;;4867023;29;20073;-82
2021/10/18 13:20:18;;;;;;;7.50;5.43;;;16.20;71.30;;;;;;4913287;29;20053;-80
2021/10/18 13:22:45;;;;;;;7.18;5.28;;;16.20;71.30;;;;;;4866876;29;20056;-81
2021/10/18 13:25:12;;;;;;;7.40;5.53;;;16.20;71.20;;;;;;4883452;29;20025;-82
2021/10/18 13:27:38;;;;;;;6.97;5.32;;;16.30;71.20;;;;;;4882176;29;20033;-82
2021/10/18 13:30:07;;;;;;;6.97;5.18;;;16.30;71.20;;;;;;4882245;29;20029;-83
2021/10/18 13:32:35;;;;;;;6.00;4.60;;;16.30;71.20;;;;;;4913172;29;20033;-82
2021/10/18 13:35:00;;;;;;;7.20;5.53;;;16.40;71.20;;;;;;4882070;29;20037;-82
2021/10/18 13:37:27;;;;;;;6.68;5.20;;;16.40;71.20;;;;;;4897855;29;20052;-83
2021/10/18 13:39:54;;;;;;;6.78;4.82;;;16.40;71.10;;;;;;4882039;29;20037;-82
2021/10/18 13:42:20;;;;;;;7.22;5.10;;;16.40;71.10;;;;;;4898199;29;20041;-82
2021/10/18 13:44:47;;;;;;;6.70;5.13;;;16.40;71.10;;;;;;4851562;29;20117;-82
2021/10/18 13:47:13;;;;;;;5.95;4.88;;;16.50;71.10;;;;;;4882974;29;20025;-82
2021/10/18 13:49:38;;;;;;;6.60;4.88;;;16.50;71.10;;;;;;4866435;29;20048;-83
2021/10/18 13:52:04;;;;;;;6.47;5.05;;;16.50;71.00;;;;;;4882039;29;20045;-83
2021/10/18 13:54:31;;;;;;;6.05;4.95;;;16.50;70.90;;;;;;4883097;29;20039;-83
2021/10/18 13:56:57;;;;;;;6.25;4.90;;;16.60;70.90;;;;;;4882046;29;20454;-83
2021/10/18 13:59:23;;;;;;;6.35;4.85;;;16.50;70.70;;;;;;4880838;29;20044;-82
2021/10/18 14:01:48;;;;;;;6.40;4.57;;;16.60;70.70;;;;;;4881483;29;20033;-82
2021/10/18 14:04:15;;;;;;;6.22;4.45;;;16.60;70.70;;;;;;4881971;29;20455;-82